TAF Text Data
IDs:
Format:
Raw Decoded Include METAR

Data at: 0545 UTC 03 Jul 2022

METAR for:KRST (Rochester Intl, MN, US)
Text:KRST 030454Z AUTO 12004KT 10SM CLR 17/15 A3011 RMK AO2 SLP190 T01670150
Temperature: 16.7°C ( 62°F)
Dewpoint: 15.0°C ( 59°F) [RH = 90%]
Pressure (altimeter):30.11 inches Hg (1019.7 mb) [Sea level pressure: 1019.0 mb]
Winds:from the ESE (120 degrees) at 5 MPH (4 knots; 2.1 m/s)
Visibility:10 or more sm (16+ km)
Ceiling:at least 12,000 feet AGL
Clouds:sky clear below 12,000 feet AGL
QC Flag:automated observation with no human augmentation

TAF for:KRST (Rochester Intl, MN, US) issued at 0525 UTC 03 Jul 2022
Text:KRST 030525Z 0306/0406 12005KT P6SM SCT150
Forecast period:0600 to 1800 UTC 03 July 2022
Forecast type:FROM: standard forecast or significant change
Winds:from the ESE (120 degrees) at 6 MPH (5 knots; 2.6 m/s)
Visibility:6 or more sm (10+ km)
Ceiling:at least 12,000 feet AGL
Clouds: scattered clouds at 15000 feet AGL
Text:FM031800 18010KT P6SM SCT150
Forecast period:1800 UTC 03 July 2022 to 0600 UTC 04 July 2022
Forecast type:FROM: standard forecast or significant change
Winds:from the S (180 degrees) at 12 MPH (10 knots; 5.1 m/s)
Visibility:6 or more sm (10+ km)
Ceiling:at least 12,000 feet AGL
Clouds: scattered clouds at 15000 feet AGL